Time;durP1;ratioP1;P1;durP2;ratioP2;P2;SDS_P1;SDS_P2;PMS_P1;PMS_P2;Temp;Humidity;BMP_temperature;BMP_pressure;BME280_temperature;BME280_humidity;BME280_pressure;Samples;Min_cycle;Max_cycle;Signal;HPM_P1;HPM_P2
2022/10/26 00:00:28;;;;;;;16.55;8.15;;;;;;;8.65;100.00;101024.38;5053579;28;20560;-77
2022/10/26 00:03:16;;;;;;;8.73;6.65;;;;;;;8.58;100.00;101024.34;5031949;28;20041;-81
2022/10/26 00:06:10;;;;;;;16.83;8.25;;;;;;;8.52;100.00;101021.69;5031318;28;20055;-77
2022/10/26 00:08:58;;;;;;;10.32;7.22;;;;;;;8.49;100.00;101020.81;5046480;28;20067;-76
2022/10/26 00:11:45;;;;;;;12.43;7.22;;;;;;;8.46;100.00;101015.56;5038069;28;20045;-81
2022/10/26 00:14:31;;;;;;;11.88;6.45;;;;;;;8.45;100.00;101019.91;5038983;28;20634;-77
2022/10/26 00:17:18;;;;;;;11.00;6.45;;;;;;;8.41;100.00;101016.38;5041070;28;20491;-82
2022/10/26 00:20:05;;;;;;;11.05;6.80;;;;;;;8.39;100.00;101012.88;5034981;28;20044;-77
2022/10/26 00:22:52;;;;;;;12.27;7.22;;;;;;;8.38;100.00;101019.00;5041515;28;20503;-78
2022/10/26 00:25:39;;;;;;;8.15;6.88;;;;;;;8.34;100.00;101030.25;5062840;28;20029;-80
2022/10/26 00:28:27;;;;;;;8.02;6.63;;;;;;;8.32;100.00;101028.50;5045322;28;20041;-76
2022/10/26 00:31:15;;;;;;;10.18;6.97;;;;;;;8.28;100.00;101028.47;5055484;28;20068;-77
2022/10/26 00:34:02;;;;;;;8.32;6.18;;;;;;;8.26;100.00;101026.72;5050834;28;20048;-77
2022/10/26 00:36:49;;;;;;;8.50;6.00;;;;;;;8.25;100.00;101032.78;5060506;28;20045;-78
2022/10/26 00:39:35;;;;;;;7.15;5.95;;;;;;;8.24;100.00;101038.91;5063395;28;20125;-79
2022/10/26 00:42:24;;;;;;;10.57;7.03;;;;;;;8.23;100.00;101031.94;5051470;28;20098;-78
2022/10/26 00:45:26;;;;;;;12.85;7.63;;;;;;;8.22;100.00;101032.78;5047887;28;20748;-76
2022/10/26 00:48:26;;;;;;;14.00;7.55;;;;;;;8.20;100.00;101021.47;5064999;28;20048;-78
2022/10/26 00:51:25;;;;;;;12.50;7.32;;;;;;;8.19;100.00;101025.81;5031483;28;20048;-80
2022/10/26 00:54:18;;;;;;;9.18;6.72;;;;;;;8.17;100.00;101021.44;5065701;28;20602;-79
2022/10/26 00:57:05;;;;;;;13.30;7.47;;;;;;;8.17;100.00;101019.69;5059242;28;20483;-77
2022/10/26 00:59:56;;;;;;;14.52;7.63;;;;;;;8.15;100.00;101024.06;5067481;28;20045;-76
2022/10/26 01:02:45;;;;;;;12.00;6.60;;;;;;;8.11;100.00;101010.13;5052790;28;20595;-79
2022/10/26 01:05:37;;;;;;;13.55;7.78;;;;;;;8.12;100.00;101016.19;5041553;28;20040;-79
2022/10/26 01:08:26;;;;;;;10.20;6.47;;;;;;;8.08;100.00;101009.22;5037519;28;20056;-80
2022/10/26 01:11:14;;;;;;;10.65;7.28;;;;;;;8.08;100.00;101014.44;5047096;28;20068;-79
2022/10/26 01:14:03;;;;;;;13.27;7.13;;;;;;;8.06;100.00;101011.81;5058928;28;20044;-76
2022/10/26 01:17:29;;;;;;;9.70;6.88;;;;;;;8.07;100.00;101017.88;5042990;28;20044;-78
2022/10/26 01:20:51;;;;;;;11.93;6.95;;;;;;;8.01;100.00;101013.50;5046257;28;20052;-78
2022/10/26 01:24:05;;;;;;;8.23;6.55;;;;;;;7.98;100.00;101005.69;5049590;28;20033;-79
2022/10/26 01:27:17;;;;;;;8.85;6.15;;;;;;;8.00;100.00;101003.09;5035237;28;20033;-80
2022/10/26 01:30:25;;;;;;;10.18;7.20;;;;;;;7.98;100.00;101007.41;5047636;28;20049;-80
2022/10/26 01:33:32;;;;;;;13.30;8.27;;;;;;;8.00;100.00;101008.28;5048496;28;20047;-80
2022/10/26 01:36:32;;;;;;;14.05;6.90;;;;;;;7.98;100.00;101002.19;5059216;28;20629;-80
2022/10/26 01:39:29;;;;;;;13.45;7.75;;;;;;;7.94;100.00;100996.97;5045343;28;20044;-79
2022/10/26 01:42:18;;;;;;;10.40;6.88;;;;;;;7.94;100.00;100991.75;5052080;28;20080;-81
2022/10/26 01:45:09;;;;;;;12.00;7.32;;;;;;;7.93;100.00;100997.81;5058566;28;20551;-79
2022/10/26 01:47:59;;;;;;;11.27;6.47;;;;;;;7.96;100.00;100994.34;5067312;28;20540;-77
2022/10/26 01:50:50;;;;;;;16.73;6.32;;;;;;;7.95;100.00;100995.22;5042242;28;20040;-77
2022/10/26 01:53:45;;;;;;;13.80;6.72;;;;;;;7.98;100.00;100991.75;5056737;28;20044;-81
2022/10/26 01:56:36;;;;;;;15.23;6.95;;;;;;;7.98;100.00;100987.44;5046983;28;20041;-79
2022/10/26 02:00:01;;;;;;;11.98;6.10;;;;;;;7.98;100.00;100987.44;5056020;28;20048;-77
2022/10/26 02:03:06;;;;;;;9.95;6.72;;;;;;;7.95;100.00;100985.69;5060085;28;20709;-77
2022/10/26 02:06:28;;;;;;;10.45;6.30;;;;;;;7.97;100.00;100987.44;5056050;28;20044;-79
2022/10/26 02:09:29;;;;;;;8.52;5.93;;;;;;;7.94;100.00;100981.31;5044689;28;20680;-79
2022/10/26 02:12:47;;;;;;;16.38;7.57;;;;;;;7.95;100.00;100980.47;5046153;28;20527;-78
2022/10/26 02:15:54;;;;;;;12.27;7.25;;;;;;;7.95;100.00;100975.25;5065088;28;20045;-78
2022/10/26 02:19:05;;;;;;;10.00;6.25;;;;;;;7.97;100.00;100977.84;5039075;28;20071;-77
2022/10/26 02:22:00;;;;;;;11.75;7.20;;;;;;;8.05;100.00;100976.16;5040776;28;20056;-80
2022/10/26 02:24:50;;;;;;;10.00;6.78;;;;;;;8.07;100.00;100976.16;5044684;28;20063;-79
2022/10/26 02:27:44;;;;;;;10.55;6.88;;;;;;;8.06;100.00;100969.25;5044448;28;20036;-79
2022/10/26 02:30:32;;;;;;;;;;;;;;;7.98;100.00;100960.47;5038074;28;20700;-78
2022/10/26 02:33:20;;;;;;;16.65;6.78;;;;;;;7.94;100.00;100957.84;5047300;28;19924;-77
2022/10/26 02:36:11;;;;;;;14.95;8.05;;;;;;;7.92;100.00;100961.31;5046365;28;20045;-82
2022/10/26 02:39:00;;;;;;;9.02;6.38;;;;;;;7.85;100.00;100947.38;5047077;28;20036;-80
2022/10/26 02:41:48;;;;;;;12.70;7.03;;;;;;;7.84;100.00;100947.38;5043843;28;20040;-77
2022/10/26 02:44:42;;;;;;;9.23;7.07;;;;;;;7.84;100.00;100950.84;5040724;28;20044;-79
2022/10/26 02:47:29;;;;;;;;;;;;;;;7.86;100.00;100953.44;5039285;28;20079;-79
2022/10/26 02:50:17;;;;;;;9.98;6.35;;;;;;;7.86;100.00;100953.44;5053903;28;19924;-77
2022/10/26 02:53:18;;;;;;;11.55;6.78;;;;;;;7.90;100.00;100955.19;5040915;28;20052;-77
2022/10/26 02:56:18;;;;;;;14.35;6.90;;;;;;;7.91;100.00;100944.81;5037687;28;20048;-79
2022/10/26 02:59:09;;;;;;;12.18;6.90;;;;;;;7.89;100.00;100941.31;5045855;28;20056;-79
2022/10/26 03:01:57;;;;;;;13.25;7.38;;;;;;;7.93;100.00;100937.84;5057000;28;20052;-79
2022/10/26 03:04:44;;;;;;;11.60;6.55;;;;;;;7.97;100.00;100928.31;5050244;28;20478;-80
2022/10/26 03:07:31;;;;;;;9.40;6.47;;;;;;;8.04;100.00;100934.44;5054754;28;20048;-80
2022/10/26 03:10:18;;;;;;;12.38;6.95;;;;;;;8.10;100.00;100937.09;5047179;28;20053;-79
2022/10/26 03:13:05;;;;;;;12.95;6.80;;;;;;;8.07;100.00;100931.84;5060095;28;20044;-80
2022/10/26 03:15:56;;;;;;;10.18;6.60;;;;;;;8.09;100.00;100931.00;5062794;28;20051;-81
2022/10/26 03:18:43;;;;;;;13.20;7.20;;;;;;;8.09;100.00;100941.44;5050508;28;20533;-76
2022/10/26 03:21:29;;;;;;;8.98;6.40;;;;;;;8.05;100.00;100931.84;5050374;28;20052;-76
2022/10/26 03:24:16;;;;;;;12.93;7.53;;;;;;;8.03;100.00;100933.59;5045735;28;20048;-77
2022/10/26 03:27:04;;;;;;;12.55;8.15;;;;;;;8.03;100.00;100930.97;5054871;28;20052;-77
2022/10/26 03:29:51;;;;;;;10.50;6.78;;;;;;;8.07;100.00;100937.06;5066540;28;20044;-75
2022/10/26 03:32:38;;;;;;;14.40;8.00;;;;;;;8.10;100.00;100931.88;5067476;28;20044;-76
2022/10/26 03:35:25;;;;;;;12.05;7.43;;;;;;;8.08;100.00;100925.78;5070478;28;20056;-76
2022/10/26 03:38:12;;;;;;;12.32;7.07;;;;;;;8.07;100.00;100922.31;5067795;28;20415;-77
2022/10/26 03:40:59;;;;;;;11.45;7.63;;;;;;;8.08;100.00;100912.75;5055372;28;20041;-76
2022/10/26 03:43:47;;;;;;;12.88;7.05;;;;;;;8.10;100.00;100914.50;5047998;28;20053;-79
2022/10/26 03:46:34;;;;;;;11.13;7.05;;;;;;;8.14;100.00;100911.91;5054646;28;20040;-78
2022/10/26 03:49:20;;;;;;;14.18;7.22;;;;;;;8.15;100.00;100911.03;5056321;28;20041;-79
2022/10/26 03:52:07;;;;;;;12.15;7.40;;;;;;;8.14;100.00;100914.53;5050319;28;20729;-77
2022/10/26 03:54:54;;;;;;;13.30;7.05;;;;;;;8.15;100.00;100908.44;5044909;28;20052;-76
2022/10/26 03:57:42;;;;;;;9.57;6.53;;;;;;;8.18;100.00;100904.09;5044952;28;20037;-78
2022/10/26 04:00:29;;;;;;;11.60;7.05;;;;;;;8.22;100.00;100908.47;5048105;28;20041;-78
2022/10/26 04:03:16;;;;;;;12.00;7.13;;;;;;;8.19;100.00;100903.25;5043533;28;20041;-76
2022/10/26 04:06:04;;;;;;;19.42;7.70;;;;;;;8.15;100.00;100898.00;5057126;28;20052;-78
2022/10/26 04:08:56;;;;;;;8.70;6.82;;;;;;;8.13;100.00;100905.81;5034474;28;20037;-78
2022/10/26 04:11:43;;;;;;;12.35;7.07;;;;;;;8.10;100.00;100903.22;5054154;28;20179;-77
2022/10/26 04:14:30;;;;;;;11.00;7.22;;;;;;;8.07;100.00;100898.84;5064256;28;20051;-76
2022/10/26 04:17:17;;;;;;;9.40;6.95;;;;;;;8.08;100.00;100892.78;5045721;28;20033;-77
2022/10/26 04:20:08;;;;;;;13.05;7.25;;;;;;;8.04;100.00;100903.16;5059391;28;20049;-83
2022/10/26 04:23:05;;;;;;;15.73;8.45;;;;;;;8.00;100.00;100898.78;5042027;28;20123;-77
2022/10/26 04:25:52;;;;;;;10.95;6.70;;;;;;;7.97;100.00;100893.59;5043559;28;20044;-78
2022/10/26 04:28:39;;;;;;;10.02;6.82;;;;;;;7.93;100.00;100898.75;5050770;28;20037;-80
2022/10/26 04:31:26;;;;;;;11.43;6.50;;;;;;;7.90;100.00;100897.84;5050356;28;20044;-79
2022/10/26 04:34:12;;;;;;;10.85;7.43;;;;;;;7.91;100.00;100904.81;5029924;28;20127;-79
2022/10/26 04:36:59;;;;;;;10.75;6.55;;;;;;;7.88;100.00;100910.03;5050974;28;20041;-78
2022/10/26 04:39:46;;;;;;;10.57;5.82;;;;;;;7.84;100.00;100911.72;5049352;28;20060;-79
2022/10/26 04:42:44;;;;;;;11.50;7.25;;;;;;;7.81;100.00;100909.13;5053675;28;20052;-76
2022/10/26 04:45:31;;;;;;;8.13;5.72;;;;;;;7.71;100.00;100916.00;5044758;28;20129;-79
2022/10/26 04:48:18;;;;;;;12.73;5.72;;;;;;;7.72;100.00;100909.06;5032329;28;20051;-81
2022/10/26 04:51:05;;;;;;;9.52;6.85;;;;;;;7.69;100.00;100911.63;5037666;28;20219;-78
2022/10/26 04:53:54;;;;;;;9.80;6.03;;;;;;;7.67;100.00;100911.63;5039550;28;20059;-80
2022/10/26 04:56:41;;;;;;;41.95;8.43;;;;;;;7.64;100.00;100914.22;5037728;28;20181;-78
2022/10/26 04:59:28;;;;;;;12.85;6.95;;;;;;;7.65;100.00;100899.44;5041534;28;20426;-79
2022/10/26 05:02:15;;;;;;;12.10;6.93;;;;;;;7.68;100.00;100902.06;5046435;28;20059;-80
2022/10/26 05:05:01;;;;;;;12.73;7.30;;;;;;;7.68;100.00;100895.13;5038533;28;20040;-81
2022/10/26 05:07:55;;;;;;;12.93;6.68;;;;;;;7.68;100.00;100896.84;5039624;28;20713;-79
2022/10/26 05:10:43;;;;;;;12.38;6.25;;;;;;;7.69;100.00;100896.00;5052302;28;20156;-77
2022/10/26 05:13:29;;;;;;;15.02;7.95;;;;;;;7.69;100.00;100889.06;5055904;28;20041;-80
2022/10/26 05:16:16;;;;;;;11.45;7.85;;;;;;;7.67;100.00;100901.19;5061856;28;20040;-77
2022/10/26 05:19:03;;;;;;;11.68;6.60;;;;;;;7.66;100.00;100896.84;5048826;28;20052;-80
2022/10/26 05:21:52;;;;;;;13.07;7.15;;;;;;;7.66;100.00;100886.41;5063449;28;20041;-80
2022/10/26 05:24:41;;;;;;;12.13;7.50;;;;;;;7.63;100.00;100894.22;5042220;28;20509;-78
2022/10/26 05:27:28;;;;;;;13.43;8.07;;;;;;;7.61;100.00;100894.22;5057716;28;20075;-76
2022/10/26 05:30:15;;;;;;;13.30;7.15;;;;;;;7.62;100.00;100893.34;5050449;28;20057;-80
2022/10/26 05:33:02;;;;;;;13.27;7.13;;;;;;;7.62;100.00;100888.13;5054177;28;20036;-80
2022/10/26 05:35:54;;;;;;;14.52;7.15;;;;;;;7.64;100.00;100895.09;5045442;28;20119;-77
2022/10/26 05:38:41;;;;;;;10.35;7.15;;;;;;;7.65;100.00;100887.28;5055199;28;20048;-78
2022/10/26 05:41:28;;;;;;;14.98;6.93;;;;;;;7.70;100.00;100888.19;5064048;28;20048;-80
2022/10/26 05:44:15;;;;;;;12.30;7.45;;;;;;;7.75;100.00;100881.25;5054343;28;20052;-81
2022/10/26 05:47:01;;;;;;;13.48;7.13;;;;;;;7.81;100.00;100890.88;5051438;28;20033;-81
2022/10/26 05:49:48;;;;;;;14.52;7.13;;;;;;;7.83;100.00;100896.94;5051941;28;20060;-79
2022/10/26 05:52:49;;;;;;;11.43;7.20;;;;;;;7.82;100.00;100892.59;5048714;28;20739;-79
2022/10/26 05:55:37;;;;;;;12.00;6.90;;;;;;;7.81;100.00;100889.97;5045962;28;20652;-77
2022/10/26 05:58:24;;;;;;;16.08;8.00;;;;;;;7.81;100.00;100900.41;5052518;28;20040;-76
2022/10/26 06:02:00;;;;;;;8.57;5.93;;;;;;;7.80;100.00;100891.72;5051569;28;20041;-78
2022/10/26 06:04:47;;;;;;;16.83;7.78;;;;;;;7.83;100.00;100903.91;5051352;28;20052;-79
2022/10/26 06:07:34;;;;;;;10.63;6.53;;;;;;;7.84;100.00;100896.09;5059322;28;20343;-76
2022/10/26 06:10:22;;;;;;;12.13;6.57;;;;;;;7.86;100.00;100898.72;5053993;28;20041;-77
2022/10/26 06:13:09;;;;;;;8.75;6.65;;;;;;;7.86;100.00;100897.00;5042727;28;20605;-79
2022/10/26 06:16:32;;;;;;;11.20;6.75;;;;;;;7.84;100.00;100903.06;5044069;28;20045;-80
2022/10/26 06:19:39;;;;;;;11.32;6.50;;;;;;;7.85;100.00;100908.28;5062206;28;20052;-80
2022/10/26 06:22:58;;;;;;;21.92;6.97;;;;;;;7.84;100.00;100905.66;5039858;28;20044;-80
2022/10/26 06:26:25;;;;;;;13.32;6.43;;;;;;;7.86;100.00;100901.31;5056615;28;20126;-78
2022/10/26 06:29:20;;;;;;;10.60;5.90;;;;;;;7.87;100.00;100914.34;5055648;28;20753;-80
2022/10/26 06:32:10;;;;;;;9.25;5.85;;;;;;;7.91;100.00;100908.31;5046023;28;20044;-80
2022/10/26 06:35:25;;;;;;;10.18;6.13;;;;;;;7.95;100.00;100912.69;5050863;28;20040;-78
2022/10/26 06:38:20;;;;;;;13.25;5.72;;;;;;;7.96;100.00;100913.53;5047075;28;20650;-81
2022/10/26 06:41:07;;;;;;;5.75;5.05;;;;;;;7.94;100.00;100910.94;5054596;28;20048;-75
2022/10/26 06:43:54;;;;;;;9.73;5.47;;;;;;;7.95;100.00;100919.63;5042597;28;20044;-78
2022/10/26 06:46:48;;;;;;;9.32;5.53;;;;;;;8.00;100.00;100919.66;5051443;28;20044;-77
2022/10/26 06:49:46;;;;;;;11.93;5.88;;;;;;;8.08;100.00;100918.84;5039927;28;20049;-78
2022/10/26 06:52:48;;;;;;;8.25;4.93;;;;;;;8.16;100.00;100915.38;5049399;28;20055;-80
2022/10/26 06:55:45;;;;;;;9.43;4.60;;;;;;;8.27;100.00;100924.16;5059915;28;20051;-79
2022/10/26 06:58:37;;;;;;;7.13;4.60;;;;;;;8.37;100.00;100920.72;5041160;28;20548;-78
2022/10/26 07:01:24;;;;;;;7.03;4.70;;;;;;;8.52;100.00;100925.16;5055737;28;20096;-79
2022/10/26 07:04:11;;;;;;;6.50;4.82;;;;;;;8.64;100.00;100924.31;5039719;28;20051;-76
2022/10/26 07:06:57;;;;;;;9.65;5.28;;;;;;;8.77;100.00;100933.94;5046210;28;20752;-78
2022/10/26 07:09:47;;;;;;;14.40;5.72;;;;;;;8.90;100.00;100932.25;5048782;28;20048;-79
2022/10/26 07:12:34;;;;;;;9.85;4.30;;;;;;;9.06;100.00;100929.66;5045227;28;20044;-79
2022/10/26 07:15:21;;;;;;;7.75;4.63;;;;;;;9.23;100.00;100930.56;5065545;28;20388;-80
2022/10/26 07:18:09;;;;;;;11.35;3.90;;;;;;;9.40;100.00;100927.09;5034603;28;20041;-80
2022/10/26 07:20:55;;;;;;;4.70;4.05;;;;;;;9.54;100.00;100935.81;5037964;28;20051;-77
2022/10/26 07:23:42;;;;;;;6.63;3.65;;;;;;;9.66;100.00;100932.31;5052224;28;20063;-77
2022/10/26 07:26:29;;;;;;;8.88;3.97;;;;;;;9.76;100.00;100939.28;5052429;28;20679;-80
2022/10/26 07:29:16;;;;;;;11.10;4.28;;;;;;;9.87;100.00;100941.88;5038656;28;20143;-80
2022/10/26 07:32:03;;;;;;;6.55;3.78;;;;;;;9.96;100.00;100940.09;5051521;28;20053;-79
2022/10/26 07:34:50;;;;;;;15.20;5.53;;;;;;;10.03;100.00;100934.00;5045548;28;20045;-76
2022/10/26 07:37:37;;;;;;;7.65;4.47;;;;;;;10.09;100.00;100937.47;5041967;28;20040;-79
2022/10/26 07:40:27;;;;;;;5.88;4.07;;;;;;;10.18;100.00;100936.59;5061959;28;20050;-76
2022/10/26 07:43:14;;;;;;;6.32;3.67;;;;;;;10.24;100.00;100941.78;5040178;28;20056;-83
2022/10/26 07:46:01;;;;;;;7.15;3.08;;;;;;;10.28;100.00;100945.25;5056833;28;20438;-76
2022/10/26 07:48:48;;;;;;;10.20;3.08;;;;;;;10.32;100.00;100941.75;5051419;28;20044;-76
2022/10/26 07:51:35;;;;;;;7.45;2.90;;;;;;;10.36;100.00;100937.41;5043084;28;20045;-80
2022/10/26 07:54:22;;;;;;;7.72;2.50;;;;;;;10.41;100.00;100935.66;5049366;28;20057;-78
2022/10/26 07:57:09;;;;;;;3.10;2.50;;;;;;;10.47;100.00;100939.97;5040904;28;20037;-78
2022/10/26 07:59:55;;;;;;;5.25;3.05;;;;;;;10.50;100.00;100951.31;5040168;28;20049;-77
2022/10/26 08:02:42;;;;;;;2.85;2.28;;;;;;;10.55;100.00;100946.94;5040166;28;20241;-78
2022/10/26 08:05:29;;;;;;;5.28;3.03;;;;;;;10.62;100.00;100944.31;5045106;28;20064;-79
2022/10/26 08:08:16;;;;;;;4.07;2.72;;;;;;;10.68;100.00;100947.75;5066959;28;20084;-78
2022/10/26 08:11:03;;;;;;;5.10;2.55;;;;;;;10.73;100.00;100950.38;5047998;28;20048;-76
2022/10/26 08:13:54;;;;;;;8.95;2.88;;;;;;;10.80;100.00;100959.91;5050297;28;20407;-76
2022/10/26 08:16:41;;;;;;;5.38;3.05;;;;;;;10.88;100.00;100963.34;5038726;28;20047;-75
2022/10/26 08:19:28;;;;;;;2.38;2.15;;;;;;;10.92;100.00;100962.50;5054084;28;20043;-75
2022/10/26 08:22:15;;;;;;;5.10;2.60;;;;;;;10.98;100.00;100961.56;5059087;28;20605;-78
2022/10/26 08:25:02;;;;;;;2.28;2.10;;;;;;;11.00;100.00;100964.19;5056023;28;20056;-79
2022/10/26 08:27:49;;;;;;;3.30;1.60;;;;;;;11.02;100.00;100962.44;5042870;28;20802;-80
2022/10/26 08:30:36;;;;;;;7.15;3.20;;;;;;;11.05;100.00;100962.41;5054348;28;20049;-79
2022/10/26 08:33:24;;;;;;;5.55;2.38;;;;;;;11.06;100.00;100953.66;5045115;28;20033;-82
2022/10/26 08:36:13;;;;;;;5.30;2.70;;;;;;;11.09;100.00;100954.53;5062787;28;20048;-80
2022/10/26 08:39:00;;;;;;;6.05;2.90;;;;;;;11.15;100.00;100953.63;5041997;28;20147;-77
2022/10/26 08:41:51;;;;;;;4.13;2.35;;;;;;;11.23;100.00;100954.41;5055106;28;20041;-78
2022/10/26 08:44:48;;;;;;;3.78;2.55;;;;;;;11.33;100.00;100950.00;5035873;28;20070;-80
2022/10/26 08:47:47;;;;;;;4.60;2.63;;;;;;;11.44;100.00;100936.81;5035758;28;20429;-77
2022/10/26 08:51:06;;;;;;;3.47;2.63;;;;;;;11.58;100.00;100941.94;5059524;28;20044;-79
2022/10/26 08:54:05;;;;;;;7.78;2.85;;;;;;;11.77;100.00;100937.38;5048774;28;20045;-79
2022/10/26 08:57:10;;;;;;;3.72;2.45;;;;;;;11.93;100.00;100935.50;5055948;28;20045;-80
2022/10/26 09:00:07;;;;;;;2.22;2.13;;;;;;;12.06;100.00;100936.28;5044415;28;20049;-77
2022/10/26 09:02:54;;;;;;;2.67;2.20;;;;;;;12.24;100.00;100929.94;5042387;28;20072;-79
2022/10/26 09:06:05;;;;;;;7.68;2.30;;;;;;;12.43;100.00;100927.97;5043529;28;20041;-78
2022/10/26 09:09:17;;;;;;;7.50;2.00;;;;;;;12.59;100.00;100928.63;5036381;28;20612;-80
2022/10/26 09:12:40;;;;;;;5.78;1.77;;;;;;;12.74;100.00;100930.22;5031670;28;20048;-80
2022/10/26 09:15:48;;;;;;;2.08;1.80;;;;;;;12.79;100.00;100928.41;5039738;28;20075;-77
2022/10/26 09:18:56;;;;;;;2.83;1.90;;;;;;;12.76;100.00;100924.94;5056522;28;20043;-79
2022/10/26 09:22:22;;;;;;;5.03;2.13;;;;;;;12.64;100.00;100931.22;5041086;28;20049;-79
2022/10/26 09:25:23;;;;;;;4.35;2.72;;;;;;;12.71;100.00;100936.38;5055139;28;20053;-80
2022/10/26 09:28:19;;;;;;;2.00;1.73;;;;;;;12.86;100.00;100937.91;5048049;28;20677;-79
2022/10/26 09:31:05;;;;;;;1.85;1.42;;;;;;;12.94;100.00;100932.56;5044803;28;20079;-77
2022/10/26 09:33:54;;;;;;;5.18;1.80;;;;;;;12.99;100.00;100933.34;5038265;28;20045;-77
2022/10/26 09:36:41;;;;;;;1.90;1.70;;;;;;;13.07;100.00;100942.00;5041275;28;20041;-77
2022/10/26 09:39:42;;;;;;;5.82;1.70;;;;;;;13.23;100.00;100937.38;5043773;28;20033;-76
2022/10/26 09:42:40;;;;;;;3.83;1.90;;;;;;;13.40;100.00;100933.63;5045941;28;20036;-77
2022/10/26 09:45:37;;;;;;;5.32;1.67;;;;;;;13.61;100.00;100944.69;5053796;28;20044;-77
2022/10/26 09:48:37;;;;;;;4.90;2.15;;;;;;;13.86;100.00;100937.28;5062277;28;20044;-78
2022/10/26 09:51:26;;;;;;;6.35;1.92;;;;;;;14.10;100.00;100950.88;5054714;28;20069;-76
2022/10/26 09:54:19;;;;;;;2.45;1.58;;;;;;;14.44;98.80;100945.78;5035802;28;20127;-82
2022/10/26 09:57:08;;;;;;;3.63;1.90;;;;;;;14.77;94.61;100947.78;5043083;28;20041;-77
2022/10/26 09:59:56;;;;;;;6.43;1.48;;;;;;;15.06;92.66;100952.41;5035729;28;20044;-77
2022/10/26 10:02:47;;;;;;;2.25;1.42;;;;;;;15.26;92.78;100949.31;5042850;28;20096;-79
2022/10/26 10:05:35;;;;;;;4.32;1.38;;;;;;;15.49;89.46;100946.13;5045878;28;20127;-78
2022/10/26 10:08:24;;;;;;;1.83;1.35;;;;;;;15.51;87.99;100943.44;5047125;28;20041;-78
2022/10/26 10:11:15;;;;;;;3.50;1.23;;;;;;;15.57;89.31;100939.81;5050285;28;20521;-76
2022/10/26 10:14:09;;;;;;;1.85;1.27;;;;;;;15.62;89.89;100949.31;5059844;28;20032;-79
2022/10/26 10:17:08;;;;;;;;;;;;;;;15.52;86.95;100950.44;5046957;28;20067;-79
2022/10/26 10:20:12;;;;;;;1.70;1.42;;;;;;;15.52;87.32;100953.94;5052043;28;19921;-77
2022/10/26 10:23:02;;;;;;;2.70;1.98;;;;;;;15.64;89.96;100954.56;5053261;28;20116;-78
2022/10/26 10:26:04;;;;;;;2.60;1.30;;;;;;;15.79;89.17;100958.59;5037992;28;20041;-76
2022/10/26 10:29:00;;;;;;;3.35;1.25;;;;;;;15.86;87.52;100955.75;5054789;28;20119;-78
2022/10/26 10:31:56;;;;;;;3.25;1.40;;;;;;;15.98;85.37;100959.88;5045699;28;20040;-78
2022/10/26 10:34:44;;;;;;;3.75;1.30;;;;;;;16.10;86.60;100952.50;5048131;28;20040;-79
2022/10/26 10:37:42;;;;;;;1.67;1.25;;;;;;;16.14;84.19;100949.75;5038760;28;20051;-79
2022/10/26 10:40:31;;;;;;;8.05;1.77;;;;;;;16.05;85.24;100947.38;5041497;28;20055;-76
2022/10/26 10:43:18;;;;;;;2.72;1.60;;;;;;;16.00;85.39;100952.75;5044594;28;20153;-78
2022/10/26 10:46:04;;;;;;;8.35;1.33;;;;;;;16.06;86.44;100954.41;5038472;28;20071;-79
2022/10/26 10:49:01;;;;;;;3.10;1.02;;;;;;;16.11;85.95;100946.31;5054691;28;20040;-80
2022/10/26 10:51:49;;;;;;;1.88;1.00;;;;;;;16.12;84.36;100954.19;5040893;28;20736;-78
2022/10/26 10:54:39;;;;;;;2.35;1.08;;;;;;;16.16;85.04;100953.19;5033941;28;20051;-76
2022/10/26 10:57:52;;;;;;;3.17;1.05;;;;;;;16.20;84.36;100957.53;5041558;28;20558;-82
2022/10/26 11:00:43;;;;;;;2.05;0.80;;;;;;;16.10;83.82;100971.88;5052460;28;20095;-78
2022/10/26 11:03:46;;;;;;;3.45;1.40;;;;;;;16.08;83.49;100973.69;5045297;28;20051;-78
2022/10/26 11:06:38;;;;;;;2.80;1.10;;;;;;;16.09;84.38;100971.91;5037479;28;20033;-77
2022/10/26 11:09:31;;;;;;;1.58;0.90;;;;;;;16.13;83.49;100968.28;5058555;28;20041;-77
2022/10/26 11:12:36;;;;;;;4.30;1.35;;;;;;;16.16;82.00;100963.78;5040475;28;20056;-77
2022/10/26 11:15:28;;;;;;;4.95;1.30;;;;;;;16.14;82.44;100962.97;5044090;28;20041;-77
2022/10/26 11:18:26;;;;;;;2.15;1.20;;;;;;;16.13;82.13;100971.78;5054460;28;20462;-76
2022/10/26 11:21:19;;;;;;;3.35;1.30;;;;;;;16.16;82.32;100970.84;5046360;28;20491;-78
2022/10/26 11:24:31;;;;;;;5.03;1.13;;;;;;;16.25;82.13;100969.72;5053653;28;20049;-79
2022/10/26 11:27:44;;;;;;;3.30;1.45;;;;;;;16.45;81.65;100967.41;5053580;28;20060;-80
2022/10/26 11:30:36;;;;;;;2.25;1.33;;;;;;;16.85;80.33;100975.94;5047857;28;20507;-78
2022/10/26 11:33:30;;;;;;;10.25;1.45;;;;;;;17.27;78.15;100975.53;5044774;28;20055;-76
2022/10/26 11:36:22;;;;;;;0.90;0.90;;;;;;;17.42;77.17;100982.13;5038079;28;20041;-76
2022/10/26 11:39:43;;;;;;;1.65;1.15;;;;;;;17.68;74.14;100980.41;5047835;28;20676;-78
2022/10/26 11:42:41;;;;;;;3.70;1.90;;;;;;;17.90;74.91;100985.84;5047072;28;20049;-80
2022/10/26 11:45:34;;;;;;;1.08;0.80;;;;;;;18.19;73.40;100990.16;5051202;28;20086;-77
2022/10/26 11:48:44;;;;;;;2.17;1.25;;;;;;;18.15;72.80;100979.75;5043077;28;20531;-78
2022/10/26 11:51:55;;;;;;;3.28;1.00;;;;;;;18.03;71.91;100983.69;5044938;28;20033;-79
2022/10/26 11:54:51;;;;;;;2.90;1.17;;;;;;;18.09;73.87;100985.25;5040514;28;20607;-78
2022/10/26 11:57:38;;;;;;;4.05;1.02;;;;;;;18.31;73.42;100990.66;5045583;28;20832;-79
2022/10/26 12:00:26;;;;;;;2.15;0.80;;;;;;;18.32;72.78;100982.63;5045037;28;20707;-80
2022/10/26 12:03:20;;;;;;;3.63;1.15;;;;;;;18.42;72.80;100993.78;5054298;28;20575;-78
2022/10/26 12:06:07;;;;;;;2.30;1.02;;;;;;;18.57;71.84;100983.53;5050543;28;20683;-80
2022/10/26 12:09:05;;;;;;;4.78;1.13;;;;;;;18.62;71.59;100992.19;5056407;28;20706;-79
2022/10/26 12:12:08;;;;;;;2.85;1.15;;;;;;;18.68;72.18;100987.50;5042135;28;20049;-77
2022/10/26 12:15:16;;;;;;;1.25;0.98;;;;;;;18.93;70.30;100996.34;5040503;28;20048;-78
2022/10/26 12:18:34;;;;;;;1.65;0.80;;;;;;;19.09;71.03;100996.63;5040772;28;20541;-76
2022/10/26 12:21:21;;;;;;;2.30;1.10;;;;;;;19.06;70.75;100996.72;5061828;28;20045;-76
2022/10/26 12:24:23;;;;;;;4.47;0.88;;;;;;;19.31;69.32;100991.34;5074664;28;20052;-76
2022/10/26 12:27:49;;;;;;;1.20;0.70;;;;;;;19.58;67.97;100999.09;5066816;28;20123;-76
2022/10/26 12:30:36;;;;;;;2.28;0.95;;;;;;;19.69;69.00;100990.69;5067234;28;20405;-77
2022/10/26 12:33:30;;;;;;;6.55;0.88;;;;;;;19.64;68.74;100981.09;5065474;28;20041;-77
2022/10/26 12:36:48;;;;;;;2.70;0.93;;;;;;;19.63;67.40;100987.38;5068140;28;20048;-77
2022/10/26 12:39:42;;;;;;;2.63;0.70;;;;;;;19.79;67.97;100981.38;5063059;28;20096;-78
2022/10/26 12:42:30;;;;;;;2.67;1.30;;;;;;;19.77;68.14;100978.81;5053707;28;20040;-77
2022/10/26 12:45:20;;;;;;;1.80;0.98;;;;;;;19.62;68.16;100990.94;5031976;28;20044;-78
2022/10/26 12:48:42;;;;;;;2.97;0.98;;;;;;;19.39;68.78;100991.03;5053974;28;20045;-83
2022/10/26 12:51:32;;;;;;;2.38;0.90;;;;;;;19.29;70.16;100987.88;5048985;28;20047;-78
2022/10/26 12:54:49;;;;;;;4.85;1.48;;;;;;;19.07;70.37;100987.84;5059075;28;20075;-78
2022/10/26 12:57:59;;;;;;;4.80;1.75;;;;;;;18.74;71.41;100986.41;5039667;28;20415;-78
2022/10/26 13:01:14;;;;;;;1.00;0.80;;;;;;;18.59;72.23;100986.97;5040346;28;20056;-80
2022/10/26 13:04:39;;;;;;;2.45;0.73;;;;;;;18.66;72.77;100986.69;5052654;28;20049;-79
2022/10/26 13:07:35;;;;;;;3.35;1.10;;;;;;;18.84;71.76;100989.59;5054823;28;20048;-77
2022/10/26 13:10:26;;;;;;;2.70;1.02;;;;;;;18.85;71.63;101005.44;5043606;28;20071;-80
2022/10/26 13:13:23;;;;;;;3.13;1.08;;;;;;;18.73;71.04;100997.94;5054425;28;20040;-76
2022/10/26 13:16:21;;;;;;;2.47;0.70;;;;;;;18.49;73.00;100994.41;5046155;28;20110;-80
2022/10/26 13:19:27;;;;;;;5.55;0.95;;;;;;;18.28;73.49;100998.72;5041586;28;20499;-77
2022/10/26 13:22:21;;;;;;;1.00;0.60;;;;;;;18.03;74.83;100994.28;5053719;28;20044;-78
2022/10/26 13:25:31;;;;;;;2.78;0.43;;;;;;;17.85;75.72;100996.59;5057906;28;20056;-79